createdAt,value
2022-09-01T00:00:02.117Z,13.26
2022-09-01T00:02:34.503Z,13.24
2022-09-01T00:05:04.622Z,13.15
2022-09-01T00:07:32.136Z,13.12
2022-09-01T00:10:00.302Z,13.15
2022-09-01T00:12:28.524Z,13.22
2022-09-01T00:14:55.695Z,13.07
2022-09-01T00:17:22.933Z,13.04
2022-09-01T00:19:50.197Z,13.01
2022-09-01T00:22:17.462Z,13.07
2022-09-01T00:24:44.784Z,13.10
2022-09-01T00:27:11.941Z,13.15
2022-09-01T00:29:44.042Z,13.19
2022-09-01T00:32:12.459Z,13.23
2022-09-01T00:34:40.170Z,13.26
2022-09-01T00:37:07.959Z,13.31
2022-09-01T00:39:35.289Z,13.28
2022-09-01T00:42:04.155Z,13.46
2022-09-01T00:44:31.829Z,13.47
2022-09-01T00:46:59.823Z,13.39
2022-09-01T00:49:35.735Z,13.28
2022-09-01T00:52:16.097Z,13.03
2022-09-01T00:54:52.030Z,12.77
2022-09-01T00:57:19.574Z,12.72
2022-09-01T00:59:59.357Z,12.72
2022-09-01T01:02:26.849Z,12.80
2022-09-01T01:04:56.117Z,12.82
2022-09-01T01:07:23.373Z,12.76
2022-09-01T01:09:51.711Z,12.76
2022-09-01T01:12:20.010Z,12.76
2022-09-01T01:14:52.577Z,12.67
2022-09-01T01:17:21.771Z,12.64
2022-09-01T01:20:14.591Z,12.64
2022-09-01T01:23:02.544Z,12.63
2022-09-01T01:25:32.623Z,12.59
2022-09-01T01:28:05.595Z,12.55
2022-09-01T01:30:37.005Z,12.55
2022-09-01T01:33:05.411Z,12.55
2022-09-01T01:35:33.990Z,12.56
2022-09-01T01:38:02.448Z,12.51
2022-09-01T01:40:31.286Z,12.45
2022-09-01T01:43:01.331Z,12.48
2022-09-01T01:45:30.370Z,12.56
2022-09-01T01:47:58.350Z,12.51
2022-09-01T01:50:30.910Z,12.45
2022-09-01T01:53:00.013Z,12.41
2022-09-01T01:55:31.167Z,12.32
2022-09-01T01:58:01.094Z,12.33
2022-09-01T02:00:32.299Z,12.26
2022-09-01T02:02:59.597Z,12.27
2022-09-01T02:05:32.301Z,12.29
2022-09-01T02:08:06.406Z,12.24
2022-09-01T02:10:39.345Z,12.32
2022-09-01T02:13:12.013Z,12.50
2022-09-01T02:15:45.680Z,12.47
2022-09-01T02:18:20.231Z,12.53
2022-09-01T02:20:49.573Z,12.57
2022-09-01T02:23:23.283Z,12.68
2022-09-01T02:26:15.152Z,12.70
2022-09-01T02:28:42.922Z,12.72
2022-09-01T02:31:11.892Z,12.70
2022-09-01T02:33:41.886Z,12.65
2022-09-01T02:36:14.313Z,12.65
2022-09-01T02:38:45.856Z,12.65
2022-09-01T02:41:14.438Z,12.62
2022-09-01T02:43:44.502Z,12.62
2022-09-01T02:46:13.063Z,12.64
2022-09-01T02:48:46.225Z,12.63
2022-09-01T02:51:17.483Z,12.63
2022-09-01T02:53:49.765Z,12.61
2022-09-01T02:56:18.256Z,12.59
2022-09-01T02:58:46.581Z,12.59
2022-09-01T03:01:24.775Z,12.69
2022-09-01T03:03:57.019Z,12.62
2022-09-01T03:06:25.868Z,12.62
2022-09-01T03:08:55.391Z,12.58
2022-09-01T03:11:24.336Z,12.45
2022-09-01T03:13:53.486Z,12.32
2022-09-01T03:16:22.507Z,12.24
2022-09-01T03:18:51.471Z,12.18
2022-09-01T03:21:20.861Z,12.18
2022-09-01T03:23:49.769Z,12.16
2022-09-01T03:26:19.545Z,12.16
2022-09-01T03:28:47.209Z,12.16
2022-09-01T03:31:16.060Z,12.06
2022-09-01T03:33:43.357Z,11.99
2022-09-01T03:36:21.640Z,12.03
2022-09-01T03:38:51.729Z,12.10
2022-09-01T03:41:25.155Z,12.08
2022-09-01T03:43:55.119Z,12.06
2022-09-01T03:46:23.044Z,12.02
2022-09-01T03:48:55.124Z,12.08
2022-09-01T03:51:23.635Z,11.97
2022-09-01T03:53:56.941Z,11.83
2022-09-01T03:56:27.679Z,11.90
2022-09-01T03:58:57.139Z,11.76
2022-09-01T04:01:27.594Z,11.70
2022-09-01T04:03:55.565Z,11.68
2022-09-01T04:06:31.047Z,11.70
2022-09-01T04:09:03.130Z,11.73
2022-09-01T04:11:33.774Z,11.78
2022-09-01T04:14:01.265Z,11.83
2022-09-01T04:16:51.559Z,11.93
2022-09-01T04:19:25.346Z,11.98
2022-09-01T04:21:56.275Z,11.97
2022-09-01T04:24:28.251Z,12.02
2022-09-01T04:26:58.672Z,12.05
2022-09-01T04:29:29.465Z,12.11
2022-09-01T04:32:05.245Z,12.09
2022-09-01T04:34:40.340Z,12.12
2022-09-01T04:37:15.370Z,12.03
2022-09-01T04:39:53.661Z,12.00
2022-09-01T04:42:25.625Z,12.03
2022-09-01T04:44:54.614Z,12.00
2022-09-01T04:47:35.256Z,12.02
2022-09-01T04:50:14.139Z,11.97
2022-09-01T04:52:47.930Z,11.99
2022-09-01T04:55:29.638Z,12.03
2022-09-01T04:57:59.712Z,12.04
2022-09-01T05:00:32.830Z,12.06
2022-09-01T05:03:04.438Z,12.06
2022-09-01T05:05:54.122Z,12.09
2022-09-01T05:08:24.509Z,12.10
2022-09-01T05:10:56.726Z,12.15
2022-09-01T05:13:38.904Z,12.22
2022-09-01T05:16:13.015Z,12.25
2022-09-01T05:18:46.156Z,12.31
2022-09-01T05:21:18.177Z,12.35
2022-09-01T05:23:46.427Z,12.37
2022-09-01T05:26:18.480Z,12.34
2022-09-01T05:28:48.766Z,12.40
2022-09-01T05:31:19.983Z,12.43
2022-09-01T05:33:49.987Z,12.39
2022-09-01T05:36:21.052Z,12.39
2022-09-01T05:38:49.427Z,12.45
2022-09-01T05:41:21.007Z,12.50
2022-09-01T05:43:57.729Z,12.46
2022-09-01T05:46:28.196Z,12.45
2022-09-01T05:48:57.456Z,12.41
2022-09-01T05:51:45.444Z,12.42
2022-09-01T05:54:15.077Z,12.48
2022-09-01T05:56:44.715Z,12.59
2022-09-01T05:59:24.376Z,12.61
2022-09-01T06:01:56.666Z,12.66
2022-09-01T06:04:26.165Z,12.66
2022-09-01T06:07:06.919Z,12.75
2022-09-01T06:09:41.730Z,12.76
2022-09-01T06:12:17.542Z,12.81
2022-09-01T06:14:50.068Z,12.90
2022-09-01T06:17:25.176Z,12.95
2022-09-01T06:19:56.097Z,12.92
2022-09-01T06:22:28.314Z,12.98
2022-09-01T06:25:01.920Z,13.00
2022-09-01T06:27:38.778Z,13.00
2022-09-01T06:30:15.030Z,13.15
2022-09-01T06:32:49.753Z,13.16
2022-09-01T06:35:18.115Z,13.21
2022-09-01T06:37:47.221Z,13.27
2022-09-01T06:40:29.294Z,13.41
2022-09-01T06:43:00.289Z,13.49
2022-09-01T06:45:27.501Z,13.49
2022-09-01T06:47:59.927Z,13.62
2022-09-01T06:53:34.390Z,13.77
2022-09-01T06:56:04.383Z,13.87
2022-09-01T06:58:33.369Z,13.95
2022-09-01T07:01:06.765Z,14.03
2022-09-01T07:03:34.154Z,13.99
2022-09-01T07:09:20.165Z,14.23
2022-09-01T07:12:27.578Z,14.46
2022-09-01T07:17:53.257Z,14.56
2022-09-01T07:20:25.764Z,14.61
2022-09-01T07:23:05.601Z,14.67
2022-09-01T07:26:01.362Z,14.75
2022-09-01T07:28:48.415Z,14.88
2022-09-01T07:39:55.205Z,15.34
2022-09-01T07:45:59.198Z,15.66
2022-09-01T07:48:36.900Z,15.69
2022-09-01T07:51:36.997Z,15.68
2022-09-01T07:54:06.139Z,15.85
2022-09-01T07:56:39.752Z,15.86
2022-09-01T07:59:14.716Z,15.90
2022-09-01T08:02:05.698Z,15.88
2022-09-01T08:04:34.352Z,15.88
2022-09-01T08:07:01.943Z,15.85
2022-09-01T08:09:37.517Z,15.79
2022-09-01T08:12:08.280Z,15.86
2022-09-01T08:15:13.023Z,15.98
2022-09-01T08:17:57.017Z,16.22
2022-09-01T08:20:27.389Z,16.25
2022-09-01T08:23:15.825Z,16.19
2022-09-01T08:25:44.255Z,16.25
2022-09-01T08:28:13.994Z,16.18
2022-09-01T08:30:47.168Z,16.31
2022-09-01T08:33:21.590Z,16.36
2022-09-01T08:35:49.636Z,16.38
2022-09-01T08:38:18.961Z,16.22
2022-09-01T08:40:57.458Z,16.24
2022-09-01T08:43:45.703Z,16.16
2022-09-01T08:46:24.801Z,16.30
2022-09-01T08:52:38.998Z,16.45
2022-09-01T08:55:15.055Z,16.48
2022-09-01T08:57:45.575Z,16.38
2022-09-01T09:00:24.759Z,16.55
2022-09-01T09:03:19.669Z,16.50
2022-09-01T09:06:07.093Z,16.65
2022-09-01T09:08:53.048Z,16.68
2022-09-01T09:11:46.670Z,16.86
2022-09-01T09:14:58.431Z,17.09
2022-09-01T09:17:31.147Z,17.23
2022-09-01T09:20:00.825Z,17.42
2022-09-01T09:22:28.613Z,17.39
2022-09-01T09:25:12.603Z,17.46
2022-09-01T09:27:46.405Z,17.67
2022-09-01T09:30:29.784Z,17.64
2022-09-01T09:35:55.017Z,17.69
2022-09-01T09:38:33.044Z,17.79
2022-09-01T09:41:16.537Z,17.85
2022-09-01T09:44:01.256Z,17.88
2022-09-01T09:46:43.722Z,17.87
2022-09-01T09:49:16.895Z,18.11
2022-09-01T09:51:50.484Z,18.15
2022-09-01T09:54:29.906Z,18.25
2022-09-01T09:57:09.202Z,18.17
2022-09-01T10:00:03.803Z,18.37
2022-09-01T10:02:44.012Z,18.71
2022-09-01T10:05:48.435Z,18.99
2022-09-01T10:08:45.473Z,19.25
2022-09-01T10:11:42.282Z,19.22
2022-09-01T10:14:50.280Z,19.56
2022-09-01T10:17:38.578Z,19.32
2022-09-01T10:20:21.748Z,19.52
2022-09-01T10:22:50.909Z,19.72
2022-09-01T10:25:26.330Z,19.91
2022-09-01T10:28:07.086Z,19.98
2022-09-01T10:30:37.183Z,19.87
2022-09-01T10:33:11.794Z,19.96
2022-09-01T10:35:47.145Z,20.00
2022-09-01T10:38:28.021Z,20.27
2022-09-01T10:41:14.341Z,20.16
2022-09-01T10:43:41.893Z,20.51
2022-09-01T10:46:26.141Z,20.23
2022-09-01T10:49:02.066Z,20.06
2022-09-01T10:51:45.081Z,20.23
2022-09-01T10:54:40.341Z,20.49
2022-09-01T10:57:43.502Z,20.55
2022-09-01T11:00:36.075Z,20.60
2022-09-01T11:06:17.706Z,20.18
2022-09-01T11:08:57.233Z,19.92
2022-09-01T11:11:36.748Z,19.72
2022-09-01T11:14:21.973Z,19.85
2022-09-01T11:17:17.524Z,19.98
2022-09-01T11:19:55.679Z,19.98
2022-09-01T11:23:28.017Z,19.81
2022-09-01T11:28:49.534Z,19.65
2022-09-01T11:31:44.204Z,19.71
2022-09-01T11:34:20.371Z,19.73
2022-09-01T11:36:56.461Z,19.83
2022-09-01T11:39:32.002Z,19.81
2022-09-01T11:42:06.212Z,19.95
2022-09-01T11:44:49.067Z,20.40
2022-09-01T11:47:20.918Z,20.39
2022-09-01T11:50:02.373Z,20.71
2022-09-01T11:52:35.906Z,20.90
2022-09-01T11:55:05.419Z,20.90
2022-09-01T11:57:38.695Z,20.66
2022-09-01T12:00:12.879Z,20.25
2022-09-01T12:02:48.956Z,19.78
2022-09-01T12:05:32.279Z,19.47
2022-09-01T12:08:03.305Z,19.24
2022-09-01T12:10:38.444Z,19.04
2022-09-01T12:13:11.097Z,18.91
2022-09-01T12:16:00.761Z,18.71
2022-09-01T12:18:35.676Z,18.62
2022-09-01T12:21:05.145Z,18.58
2022-09-01T12:23:35.192Z,18.65
2022-09-01T12:26:07.124Z,18.69
2022-09-01T12:28:36.228Z,18.74
2022-09-01T12:31:07.419Z,18.88
2022-09-01T12:33:35.532Z,19.02
2022-09-01T12:36:14.907Z,18.93
2022-09-01T12:38:42.898Z,18.90
2022-09-01T12:41:48.432Z,18.95
2022-09-01T12:44:38.303Z,19.16
2022-09-01T12:47:09.507Z,19.59
2022-09-01T12:49:50.746Z,19.96
2022-09-01T12:52:22.258Z,20.28
2022-09-01T12:54:53.375Z,20.55
2022-09-01T12:57:34.523Z,20.78
2022-09-01T13:00:09.258Z,20.88
2022-09-01T13:02:38.099Z,21.03
2022-09-01T13:05:21.654Z,21.26
2022-09-01T13:07:49.564Z,21.11
2022-09-01T13:10:16.880Z,20.98
2022-09-01T13:12:45.763Z,20.46
2022-09-01T13:17:41.656Z,19.87
2022-09-01T13:20:09.654Z,19.76
2022-09-01T13:22:37.338Z,19.76
2022-09-01T13:25:05.502Z,19.77
2022-09-01T13:27:34.617Z,19.63
2022-09-01T13:30:02.156Z,19.68
2022-09-01T13:32:29.501Z,19.63
2022-09-01T13:34:58.114Z,19.47
2022-09-01T13:37:25.713Z,19.44
2022-09-01T13:39:52.839Z,19.26
2022-09-01T13:42:20.050Z,19.17
2022-09-01T13:44:49.583Z,19.18
2022-09-01T13:47:34.249Z,19.15
2022-09-01T13:50:11.092Z,19.16
2022-09-01T13:52:40.109Z,19.27
2022-09-01T13:55:09.803Z,19.79
2022-09-01T13:57:37.121Z,20.08
2022-09-01T14:00:12.225Z,20.34
2022-09-01T14:02:42.940Z,20.72
2022-09-01T14:05:10.273Z,20.92
2022-09-01T14:07:37.517Z,21.09
2022-09-01T14:10:05.155Z,21.22
2022-09-01T14:12:34.270Z,21.20
2022-09-01T14:15:18.617Z,20.49
2022-09-01T14:17:51.473Z,20.16
2022-09-01T14:20:22.038Z,19.77
2022-09-01T14:22:50.722Z,19.53
2022-09-01T14:25:20.328Z,19.27
2022-09-01T14:27:49.013Z,19.12
2022-09-01T14:30:31.210Z,19.01
2022-09-01T14:33:00.483Z,19.04
2022-09-01T14:35:31.083Z,18.99
2022-09-01T14:37:59.040Z,18.93
2022-09-01T14:40:29.368Z,18.93
2022-09-01T14:42:56.857Z,18.95
2022-09-01T14:45:26.841Z,18.87
2022-09-01T14:47:56.287Z,18.93
2022-09-01T14:50:25.124Z,18.86
2022-09-01T14:52:56.922Z,18.86
2022-09-01T14:55:26.116Z,19.01
2022-09-01T14:57:54.619Z,19.01
2022-09-01T15:00:25.220Z,18.99
2022-09-01T15:02:54.250Z,18.92
2022-09-01T15:05:22.860Z,18.88
2022-09-01T15:07:50.805Z,18.96
2022-09-01T15:10:24.679Z,18.86
2022-09-01T15:12:57.757Z,18.77
2022-09-01T15:15:27.582Z,18.75
2022-09-01T15:17:55.367Z,18.82
2022-09-01T15:20:41.324Z,18.91
2022-09-01T15:23:10.094Z,18.85
2022-09-01T15:25:37.547Z,18.70
2022-09-01T15:28:06.146Z,18.55
2022-09-01T15:30:35.358Z,18.42
2022-09-01T15:33:03.787Z,18.41
2022-09-01T15:35:31.752Z,18.32
2022-09-01T15:37:59.810Z,18.21
2022-09-01T15:40:28.171Z,18.17
2022-09-01T15:42:57.217Z,18.17
2022-09-01T15:45:25.865Z,18.11
2022-09-01T15:47:53.222Z,18.12
2022-09-01T15:50:23.316Z,18.08
2022-09-01T15:53:08.405Z,17.92
2022-09-01T15:55:42.369Z,17.93
2022-09-01T15:58:12.928Z,17.95
2022-09-01T16:00:40.979Z,17.92
2022-09-01T16:03:09.117Z,17.89
2022-09-01T16:05:39.506Z,17.89
2022-09-01T16:08:11.690Z,17.79
2022-09-01T16:10:40.676Z,17.80
2022-09-01T16:13:08.226Z,17.66
2022-09-01T16:15:44.523Z,17.72
2022-09-01T16:18:26.901Z,17.66
2022-09-01T16:21:14.855Z,17.64
2022-09-01T16:23:45.697Z,17.56
2022-09-01T16:26:12.927Z,17.51
2022-09-01T16:28:45.028Z,17.51
2022-09-01T16:31:16.310Z,17.45
2022-09-01T16:33:50.836Z,17.45
2022-09-01T16:36:42.780Z,17.34
2022-09-01T16:39:28.991Z,17.29
2022-09-01T16:42:14.416Z,17.22
2022-09-01T16:45:03.498Z,17.13
2022-09-01T16:48:08.567Z,17.07
2022-09-01T16:50:55.928Z,17.05
2022-09-01T16:54:15.872Z,16.97
2022-09-01T16:57:08.847Z,16.95
2022-09-01T16:59:55.633Z,16.92
2022-09-01T17:02:44.081Z,16.84
2022-09-01T17:05:43.197Z,16.78
2022-09-01T17:08:21.644Z,16.74
2022-09-01T17:11:04.780Z,16.74
2022-09-01T17:13:40.296Z,16.63
2022-09-01T17:16:29.586Z,16.71
2022-09-01T17:18:59.747Z,16.70
2022-09-01T17:21:49.481Z,16.68
2022-09-01T17:24:39.011Z,16.71
2022-09-01T17:27:32.837Z,16.62
2022-09-01T17:30:01.729Z,16.59
2022-09-01T17:32:50.031Z,16.58
2022-09-01T17:35:38.708Z,16.63
2022-09-01T17:38:30.444Z,16.62
2022-09-01T17:41:13.418Z,16.58
2022-09-01T17:43:52.451Z,16.50
2022-09-01T17:46:36.890Z,16.57
2022-09-01T17:49:37.908Z,16.47
2022-09-01T17:52:40.056Z,16.41
2022-09-01T17:55:36.174Z,16.39
2022-09-01T17:58:21.511Z,16.39
2022-09-01T18:00:58.742Z,16.42
2022-09-01T18:03:44.860Z,16.38
2022-09-01T18:06:36.856Z,16.31
2022-09-01T18:09:05.293Z,16.28
2022-09-01T18:11:52.994Z,16.21
2022-09-01T18:14:24.497Z,16.16
2022-09-01T18:17:15.010Z,16.13
2022-09-01T18:19:50.695Z,16.11
2022-09-01T18:22:21.164Z,16.15
2022-09-01T18:24:57.738Z,16.16
2022-09-01T18:27:27.775Z,16.13
2022-09-01T18:29:57.746Z,16.13
2022-09-01T18:32:34.152Z,16.05
2022-09-01T18:35:08.132Z,16.02
2022-09-01T18:37:53.245Z,15.99
2022-09-01T18:40:31.415Z,16.00
2022-09-01T18:43:20.575Z,15.92
2022-09-01T18:45:54.305Z,15.88
2022-09-01T18:49:03.807Z,15.92
2022-09-01T18:51:45.658Z,15.84
2022-09-01T18:54:19.908Z,15.84
2022-09-01T18:57:00.954Z,15.86
2022-09-01T18:59:49.656Z,15.86
2022-09-01T19:02:55.940Z,15.76
2022-09-01T19:05:38.508Z,15.74
2022-09-01T19:08:40.232Z,15.68
2022-09-01T19:11:28.649Z,15.67
2022-09-01T19:17:02.645Z,15.77
2022-09-01T19:19:43.765Z,15.85
2022-09-01T19:22:33.399Z,15.83
2022-09-01T19:25:38.512Z,15.78
2022-09-01T19:28:21.142Z,15.78
2022-09-01T19:30:57.500Z,15.73
2022-09-01T19:33:28.922Z,15.68
2022-09-01T19:36:02.588Z,15.62
2022-09-01T19:38:31.515Z,15.58
2022-09-01T19:41:09.677Z,15.59
2022-09-01T19:43:40.495Z,15.53
2022-09-01T19:46:48.260Z,15.45
2022-09-01T19:50:06.747Z,15.36
2022-09-01T19:52:55.570Z,15.27
2022-09-01T19:55:45.661Z,15.21
2022-09-01T19:58:18.277Z,15.21
2022-09-01T20:00:53.443Z,15.24
2022-09-01T20:03:29.628Z,15.24
2022-09-01T20:06:03.487Z,15.26
2022-09-01T20:08:39.635Z,15.23
2022-09-01T20:11:44.899Z,15.17
2022-09-01T20:14:30.358Z,15.08
2022-09-01T20:17:02.533Z,15.02
2022-09-01T20:19:48.995Z,15.06
2022-09-01T20:22:40.379Z,15.05
2022-09-01T20:25:14.900Z,15.04
2022-09-01T20:28:00.004Z,15.03
2022-09-01T20:30:37.139Z,14.99
2022-09-01T20:33:09.302Z,14.87
2022-09-01T20:35:45.476Z,14.80
2022-09-01T20:38:42.657Z,14.83
2022-09-01T20:41:28.979Z,14.83
2022-09-01T20:43:57.307Z,14.88
2022-09-01T20:46:26.502Z,14.84
2022-09-01T20:48:53.842Z,14.86
2022-09-01T20:51:32.546Z,14.87
2022-09-01T20:54:21.035Z,14.86
2022-09-01T20:57:24.528Z,14.78
2022-09-01T20:59:58.261Z,14.81
2022-09-01T21:03:19.614Z,14.74
2022-09-01T21:06:09.794Z,14.71
2022-09-01T21:08:49.085Z,14.65
2022-09-01T21:11:35.152Z,14.64
2022-09-01T21:14:14.399Z,14.61
2022-09-01T21:17:03.924Z,14.45
2022-09-01T21:19:46.705Z,14.44
2022-09-01T21:22:21.281Z,14.34
2022-09-01T21:24:50.197Z,14.33
2022-09-01T21:27:17.331Z,14.26
2022-09-01T21:30:11.799Z,14.22
2022-09-01T21:32:39.721Z,14.18
2022-09-01T21:35:08.705Z,14.11
2022-09-01T21:37:36.018Z,14.15
2022-09-01T21:40:05.512Z,14.12
2022-09-01T21:42:39.970Z,14.10
2022-09-01T21:45:10.387Z,14.12
2022-09-01T21:47:38.485Z,14.09
2022-09-01T21:50:06.733Z,14.07
2022-09-01T21:52:34.298Z,14.07
2022-09-01T21:55:01.627Z,14.05
2022-09-01T21:57:28.885Z,14.04
2022-09-01T21:59:56.088Z,14.08
2022-09-01T22:02:28.221Z,14.07
2022-09-01T22:04:56.372Z,14.08
2022-09-01T22:07:23.500Z,14.00
2022-09-01T22:09:51.371Z,13.96
2022-09-01T22:12:18.554Z,13.90
2022-09-01T22:14:46.387Z,13.76
2022-09-01T22:17:13.764Z,13.69
2022-09-01T22:19:41.108Z,13.67
2022-09-01T22:22:08.303Z,13.60
2022-09-01T22:24:35.997Z,13.55
2022-09-01T22:27:03.204Z,13.42
2022-09-01T22:29:30.282Z,13.38
2022-09-01T22:31:57.441Z,13.28
2022-09-01T22:34:24.512Z,13.19
2022-09-01T22:36:51.755Z,13.12
2022-09-01T22:39:19.188Z,13.05
2022-09-01T22:41:49.532Z,13.02
2022-09-01T22:44:16.698Z,13.03
2022-09-01T22:46:44.432Z,13.04
2022-09-01T22:49:12.197Z,13.08
2022-09-01T22:51:42.216Z,13.12
2022-09-01T22:54:10.777Z,13.14
2022-09-01T22:56:40.574Z,13.13
2022-09-01T22:59:13.972Z,13.06
2022-09-01T23:01:44.223Z,13.03
2022-09-01T23:04:14.173Z,13.00
2022-09-01T23:06:44.958Z,12.99
2022-09-01T23:09:13.064Z,12.92
2022-09-01T23:11:40.838Z,12.83
2022-09-01T23:14:08.883Z,12.74
2022-09-01T23:16:37.080Z,12.83
2022-09-01T23:19:08.870Z,12.87
2022-09-01T23:21:38.596Z,12.77
2022-09-01T23:24:07.225Z,12.70
2022-09-01T23:26:35.530Z,12.62
2022-09-01T23:29:03.891Z,12.56
2022-09-01T23:31:34.532Z,12.49
2022-09-01T23:34:02.715Z,12.54
2022-09-01T23:36:30.233Z,12.57
2022-09-01T23:38:57.531Z,12.53
2022-09-01T23:41:31.844Z,12.51
2022-09-01T23:44:01.621Z,12.46
2022-09-01T23:46:32.886Z,12.37
2022-09-01T23:49:01.281Z,12.32
2022-09-01T23:51:29.662Z,12.26
2022-09-01T23:53:57.146Z,12.18
2022-09-01T23:56:27.960Z,12.11
2022-09-01T23:58:55.755Z,12.04
